createdAt,value
2018-07-08T00:01:04.013Z,22.70
2018-07-08T00:03:31.649Z,22.80
2018-07-08T00:05:59.280Z,22.80
2018-07-08T00:08:27.002Z,22.70
2018-07-08T00:10:56.584Z,22.60
2018-07-08T00:13:25.542Z,22.40
2018-07-08T00:15:53.389Z,22.50
2018-07-08T00:20:51.833Z,22.30
2018-07-08T00:23:21.139Z,22.30
2018-07-08T00:25:49.665Z,22.40
2018-07-08T00:28:17.501Z,22.40
2018-07-08T00:30:45.564Z,22.40
2018-07-08T00:33:13.743Z,22.50
2018-07-08T00:35:41.422Z,22.60
2018-07-08T00:38:08.987Z,22.60
2018-07-08T00:40:36.702Z,22.60
2018-07-08T00:43:04.285Z,22.60
2018-07-08T00:45:32.042Z,22.60
2018-07-08T00:47:59.755Z,22.40
2018-07-08T00:50:28.061Z,22.30
2018-07-08T00:52:55.640Z,22.30
2018-07-08T00:55:23.346Z,22.20
2018-07-08T00:57:50.945Z,22.20
2018-07-08T01:00:26.965Z,22.20
2018-07-08T01:02:54.682Z,22.20
2018-07-08T01:05:22.339Z,22.20
2018-07-08T01:07:51.811Z,22.10
2018-07-08T01:10:19.284Z,22.10
2018-07-08T01:12:46.980Z,22.10
2018-07-08T01:15:15.658Z,22.10
2018-07-08T01:17:43.265Z,22.10
2018-07-08T01:20:11.024Z,22.10
2018-07-08T01:22:38.841Z,22.10
2018-07-08T01:25:10.436Z,22.00
2018-07-08T01:27:38.396Z,22.00
2018-07-08T01:30:06.886Z,22.00
2018-07-08T01:32:34.929Z,21.90
2018-07-08T01:35:03.888Z,21.90
2018-07-08T01:37:32.036Z,21.80
2018-07-08T01:39:59.645Z,22.50
2018-07-08T01:42:27.857Z,21.70
2018-07-08T01:44:55.442Z,21.70
2018-07-08T01:47:23.407Z,21.70
2018-07-08T01:49:52.216Z,21.80
2018-07-08T01:52:20.039Z,21.80
2018-07-08T01:54:47.720Z,21.80
2018-07-08T01:57:15.542Z,21.80
2018-07-08T01:59:43.169Z,21.80
2018-07-08T02:02:10.692Z,22.10
2018-07-08T02:04:38.192Z,21.80
2018-07-08T02:07:06.507Z,21.90
2018-07-08T02:09:34.268Z,22.00
2018-07-08T02:12:02.051Z,22.00
2018-07-08T02:14:29.715Z,22.00
2018-07-08T02:16:57.599Z,21.90
2018-07-08T02:19:25.149Z,21.90
2018-07-08T02:21:53.042Z,21.80
2018-07-08T02:24:21.927Z,21.70
2018-07-08T02:26:49.887Z,21.70
2018-07-08T02:29:17.425Z,21.60
2018-07-08T02:31:45.477Z,21.60
2018-07-08T02:34:13.165Z,21.60
2018-07-08T02:36:40.924Z,21.60
2018-07-08T02:39:09.152Z,21.50
2018-07-08T02:41:36.752Z,21.50
2018-07-08T02:44:04.681Z,21.50
2018-07-08T02:46:32.544Z,21.50
2018-07-08T02:49:00.409Z,21.50
2018-07-08T02:51:28.220Z,21.70
2018-07-08T02:53:55.819Z,21.70
2018-07-08T02:56:24.109Z,21.60
2018-07-08T02:58:51.749Z,21.60
2018-07-08T03:01:19.478Z,21.40
2018-07-08T03:03:46.999Z,21.30
2018-07-08T03:06:16.245Z,21.30
2018-07-08T03:08:43.798Z,21.20
2018-07-08T03:11:11.411Z,21.20
2018-07-08T03:13:39.056Z,21.20
2018-07-08T03:16:07.577Z,21.20
2018-07-08T03:18:35.213Z,21.10
2018-07-08T03:23:30.226Z,21.30
2018-07-08T03:25:58.278Z,21.30
2018-07-08T03:28:26.513Z,21.30
2018-07-08T03:30:54.658Z,21.30
2018-07-08T03:33:22.269Z,21.20
2018-07-08T03:35:50.083Z,21.30
2018-07-08T03:38:17.584Z,21.20
2018-07-08T03:40:46.064Z,21.20
2018-07-08T03:43:13.661Z,21.10
2018-07-08T03:45:41.785Z,21.10
2018-07-08T03:48:09.250Z,21.10
2018-07-08T03:50:36.825Z,21.10
2018-07-08T03:53:05.779Z,21.10
2018-07-08T03:58:01.371Z,21.10
2018-07-08T04:00:30.074Z,21.10
2018-07-08T04:02:58.392Z,21.10
2018-07-08T04:05:26.064Z,21.20
2018-07-08T04:07:53.656Z,21.20
2018-07-08T04:10:21.240Z,21.20
2018-07-08T04:12:49.333Z,21.40
2018-07-08T04:15:16.864Z,21.30
2018-07-08T04:17:44.840Z,21.30
2018-07-08T04:20:12.394Z,21.20
2018-07-08T04:22:39.900Z,21.20
2018-07-08T04:25:07.473Z,21.20
2018-07-08T04:27:35.032Z,21.20
2018-07-08T04:30:02.689Z,21.20
2018-07-08T04:32:30.222Z,21.20
2018-07-08T04:34:57.958Z,21.20
2018-07-08T04:37:26.207Z,21.40
2018-07-08T04:39:53.978Z,21.40
2018-07-08T04:42:22.098Z,21.40
2018-07-08T04:44:49.621Z,21.50
2018-07-08T04:47:17.172Z,21.60
2018-07-08T04:49:44.696Z,21.60
2018-07-08T04:52:12.295Z,21.70
2018-07-08T04:57:07.300Z,21.80
2018-07-08T04:59:35.060Z,21.80
2018-07-08T05:02:02.609Z,21.70
2018-07-08T05:04:30.142Z,21.70
2018-07-08T05:06:57.652Z,21.80
2018-07-08T05:09:25.421Z,21.90
2018-07-08T05:11:52.958Z,21.90
2018-07-08T05:14:20.616Z,21.90
2018-07-08T05:16:48.178Z,21.90
2018-07-08T05:19:15.736Z,22.00
2018-07-08T05:21:43.275Z,22.00
2018-07-08T05:24:10.858Z,22.00
2018-07-08T05:26:38.481Z,22.00
2018-07-08T05:29:06.108Z,22.00
2018-07-08T05:31:33.852Z,22.20
2018-07-08T05:34:01.360Z,22.20
2018-07-08T05:36:29.186Z,22.20
2018-07-08T05:38:56.769Z,22.40
2018-07-08T05:41:24.354Z,22.60
2018-07-08T05:43:52.371Z,22.50
2018-07-08T05:46:20.413Z,22.70
2018-07-08T05:48:48.036Z,22.70
2018-07-08T05:51:15.626Z,22.80
2018-07-08T05:53:43.223Z,22.80
2018-07-08T05:56:10.865Z,22.80
2018-07-08T05:58:38.493Z,22.80
2018-07-08T06:01:06.772Z,22.80
2018-07-08T06:03:35.240Z,22.90
2018-07-08T06:06:03.482Z,23.00
2018-07-08T06:08:30.963Z,23.00
2018-07-08T06:10:58.440Z,23.20
2018-07-08T06:13:25.960Z,23.40
2018-07-08T06:15:53.516Z,23.50
2018-07-08T06:18:21.047Z,23.30
2018-07-08T06:20:48.563Z,23.20
2018-07-08T06:23:16.078Z,23.20
2018-07-08T06:25:43.738Z,23.40
2018-07-08T06:28:11.269Z,23.40
2018-07-08T06:30:38.857Z,23.90
2018-07-08T06:33:06.429Z,23.90
2018-07-08T06:35:33.981Z,24.10
2018-07-08T06:38:01.652Z,24.20
2018-07-08T06:40:29.195Z,24.50
2018-07-08T06:42:57.256Z,24.60
2018-07-08T06:45:24.901Z,24.90
2018-07-08T06:47:52.405Z,24.90
2018-07-08T06:50:19.931Z,24.90
2018-07-08T06:52:47.477Z,25.10
2018-07-08T06:55:15.648Z,25.20
2018-07-08T06:57:43.192Z,25.10
2018-07-08T07:00:10.911Z,25.30
2018-07-08T07:02:38.772Z,25.40
2018-07-08T07:07:33.886Z,25.60
2018-07-08T07:10:01.561Z,25.50
2018-07-08T07:12:29.198Z,25.80
2018-07-08T07:14:56.709Z,26.00
2018-07-08T07:17:24.291Z,26.50
2018-07-08T07:19:51.964Z,26.50
2018-07-08T07:22:19.758Z,26.60
2018-07-08T07:24:47.318Z,26.80
2018-07-08T07:27:15.857Z,26.80
2018-07-08T07:29:43.545Z,26.70
2018-07-08T07:32:11.104Z,26.80
2018-07-08T07:34:38.788Z,26.80
2018-07-08T07:37:06.805Z,27.00
2018-07-08T07:39:34.340Z,27.10
2018-07-08T07:42:02.623Z,27.10
2018-07-08T07:44:30.143Z,27.30
2018-07-08T07:46:57.646Z,27.30
2018-07-08T07:49:25.217Z,27.30
2018-07-08T07:51:52.795Z,27.50
2018-07-08T07:54:20.325Z,27.60
2018-07-08T07:56:47.941Z,27.60
2018-07-08T07:59:15.488Z,27.70
2018-07-08T08:01:43.021Z,27.70
2018-07-08T08:04:11.216Z,28.00
2018-07-08T08:06:39.389Z,28.00
2018-07-08T08:09:07.500Z,28.30
2018-07-08T08:14:03.821Z,28.20
2018-07-08T08:16:31.326Z,28.30
2018-07-08T08:18:59.386Z,28.60
2018-07-08T08:21:26.909Z,28.60
2018-07-08T08:23:55.506Z,28.70
2018-07-08T08:26:22.988Z,28.70
2018-07-08T08:28:51.805Z,28.80
2018-07-08T08:31:19.389Z,28.90
2018-07-08T08:35:08.121Z,28.90
2018-07-08T08:37:37.602Z,28.70
2018-07-08T08:42:33.040Z,28.70
2018-07-08T08:45:02.729Z,28.90
2018-07-08T08:47:30.896Z,29.10
2018-07-08T08:49:59.788Z,29.30
2018-07-08T08:52:27.370Z,29.40
2018-07-08T08:54:55.389Z,29.40
2018-07-08T08:57:24.257Z,29.40
2018-07-08T08:59:51.849Z,29.20
2018-07-08T09:02:19.294Z,29.20
2018-07-08T09:04:46.808Z,29.40
2018-07-08T09:07:16.407Z,29.40
2018-07-08T09:09:44.508Z,29.40
2018-07-08T09:12:12.863Z,29.70
2018-07-08T09:14:40.629Z,29.50
2018-07-08T09:17:09.172Z,29.40
2018-07-08T09:19:36.832Z,29.30
2018-07-08T09:22:06.213Z,29.10
2018-07-08T09:24:33.817Z,29.00
2018-07-08T09:27:01.600Z,29.00
2018-07-08T09:29:29.213Z,29.00
2018-07-08T09:31:56.762Z,29.00
2018-07-08T09:34:24.285Z,29.20
2018-07-08T09:36:51.934Z,29.50
2018-07-08T09:39:19.603Z,29.20
2018-07-08T09:41:47.676Z,29.10
2018-07-08T09:44:16.668Z,29.10
2018-07-08T09:46:46.357Z,29.10
2018-07-08T09:49:14.731Z,29.20
2018-07-08T09:51:43.154Z,29.30
2018-07-08T09:54:11.301Z,29.20
2018-07-08T09:56:39.268Z,29.30
2018-07-08T09:59:06.790Z,29.40
2018-07-08T10:01:38.257Z,29.40
2018-07-08T10:04:06.675Z,29.40
2018-07-08T10:06:34.198Z,29.50
2018-07-08T10:09:02.449Z,29.50
2018-07-08T10:11:29.968Z,29.60
2018-07-08T10:13:58.132Z,29.50
2018-07-08T10:16:26.097Z,29.20
2018-07-08T10:18:53.611Z,29.30
2018-07-08T10:21:21.099Z,29.40
2018-07-08T10:23:49.636Z,29.60
2018-07-08T10:26:17.966Z,29.60
2018-07-08T10:28:46.087Z,29.40
2018-07-08T10:31:14.120Z,29.30
2018-07-08T10:33:53.061Z,29.40
2018-07-08T10:36:20.600Z,29.50
2018-07-08T10:38:48.278Z,29.70
2018-07-08T10:41:15.796Z,29.70
2018-07-08T10:43:43.453Z,29.90
2018-07-08T10:46:11.050Z,30.00
2018-07-08T10:48:39.105Z,29.80
2018-07-08T10:51:06.815Z,29.70
2018-07-08T10:53:34.390Z,29.70
2018-07-08T10:56:02.021Z,29.70
2018-07-08T10:58:29.506Z,29.80
2018-07-08T11:00:57.062Z,29.70
2018-07-08T11:03:24.943Z,29.70
2018-07-08T11:05:53.528Z,29.90
2018-07-08T11:08:21.053Z,30.00
2018-07-08T11:10:48.649Z,30.20
2018-07-08T11:13:17.119Z,30.30
2018-07-08T11:15:44.656Z,30.60
2018-07-08T11:18:12.319Z,30.80
2018-07-08T11:20:40.320Z,30.70
2018-07-08T11:23:07.795Z,30.70
2018-07-08T11:25:35.307Z,30.70
2018-07-08T11:28:03.688Z,30.80
2018-07-08T11:30:31.355Z,30.80
2018-07-08T11:32:59.628Z,30.80
2018-07-08T11:35:27.268Z,30.90
2018-07-08T11:37:54.757Z,31.00
2018-07-08T11:42:50.044Z,31.00
2018-07-08T11:47:45.061Z,31.30
2018-07-08T11:50:12.607Z,31.30
2018-07-08T11:52:40.216Z,31.20
2018-07-08T11:55:07.968Z,31.20
2018-07-08T11:57:35.553Z,31.20
2018-07-08T12:02:30.914Z,31.10
2018-07-08T12:04:58.638Z,31.10
2018-07-08T12:07:26.300Z,31.20
2018-07-08T12:09:54.483Z,31.30
2018-07-08T12:12:22.679Z,31.50
2018-07-08T12:14:51.137Z,31.60
2018-07-08T12:17:19.675Z,31.60
2018-07-08T12:19:47.572Z,31.60
2018-07-08T12:22:15.075Z,31.50
2018-07-08T12:24:42.788Z,31.50
2018-07-08T12:27:10.448Z,31.50
2018-07-08T12:29:37.969Z,31.50
2018-07-08T12:32:05.575Z,31.10
2018-07-08T12:34:33.461Z,31.00
2018-07-08T12:37:01.074Z,31.00
2018-07-08T12:39:29.402Z,31.10
2018-07-08T12:41:56.944Z,31.10
2018-07-08T12:44:24.649Z,32.00
2018-07-08T12:46:52.210Z,31.20
2018-07-08T12:49:20.312Z,31.20
2018-07-08T12:51:47.876Z,31.10
2018-07-08T12:54:15.613Z,31.20
2018-07-08T12:56:43.803Z,31.30
2018-07-08T12:59:11.679Z,31.30
2018-07-08T13:01:39.247Z,31.50
2018-07-08T13:04:06.906Z,31.40
2018-07-08T13:06:34.461Z,31.40
2018-07-08T13:09:02.240Z,31.50
2018-07-08T13:11:29.868Z,31.40
2018-07-08T13:13:57.509Z,31.40
2018-07-08T13:16:25.092Z,31.30
2018-07-08T13:18:52.767Z,31.30
2018-07-08T13:21:20.481Z,31.30
2018-07-08T13:23:48.081Z,31.30
2018-07-08T13:26:15.965Z,31.10
2018-07-08T13:28:43.503Z,31.00
2018-07-08T13:33:39.253Z,31.00
2018-07-08T13:36:07.289Z,31.00
2018-07-08T13:38:34.945Z,31.00
2018-07-08T13:41:03.420Z,31.00
2018-07-08T13:43:31.208Z,31.00
2018-07-08T13:45:58.793Z,31.00
2018-07-08T13:48:26.328Z,31.00
2018-07-08T13:50:53.995Z,31.00
2018-07-08T13:53:21.650Z,30.80
2018-07-08T13:55:49.686Z,30.70
2018-07-08T13:58:17.755Z,30.70
2018-07-08T14:00:46.180Z,30.60
2018-07-08T14:03:13.823Z,30.60
2018-07-08T14:05:41.307Z,30.60
2018-07-08T14:08:09.097Z,30.50
2018-07-08T14:10:37.836Z,30.40
2018-07-08T14:13:06.069Z,30.00
2018-07-08T14:15:34.416Z,30.00
2018-07-08T14:18:01.968Z,30.00
2018-07-08T14:20:29.547Z,29.90
2018-07-08T14:22:57.157Z,29.80
2018-07-08T14:25:24.738Z,29.70
2018-07-08T14:27:52.280Z,29.60
2018-07-08T14:30:19.972Z,29.60
2018-07-08T14:32:47.685Z,29.50
2018-07-08T14:35:15.887Z,29.30
2018-07-08T14:37:43.435Z,29.40
2018-07-08T14:40:11.000Z,29.30
2018-07-08T14:42:38.505Z,29.30
2018-07-08T14:45:06.171Z,29.20
2018-07-08T14:47:33.844Z,29.10
2018-07-08T14:50:01.466Z,29.10
2018-07-08T14:52:28.994Z,29.00
2018-07-08T14:54:56.560Z,29.00
2018-07-08T14:57:24.131Z,28.90
2018-07-08T15:02:19.270Z,28.80
2018-07-08T15:07:16.937Z,28.70
2018-07-08T15:09:44.894Z,28.60
2018-07-08T15:12:13.060Z,28.60
2018-07-08T15:14:40.649Z,28.60
2018-07-08T15:17:08.763Z,28.50
2018-07-08T15:19:37.569Z,28.40
2018-07-08T15:22:05.330Z,28.40
2018-07-08T15:24:33.432Z,28.30
2018-07-08T15:27:01.623Z,28.30
2018-07-08T15:29:29.293Z,28.40
2018-07-08T15:31:56.987Z,28.30
2018-07-08T15:34:24.541Z,28.20
2018-07-08T15:36:52.196Z,28.30
2018-07-08T15:39:20.446Z,28.20
2018-07-08T15:41:48.292Z,28.10
2018-07-08T15:44:15.988Z,28.10
2018-07-08T15:46:43.751Z,28.00
2018-07-08T15:49:11.911Z,28.00
2018-07-08T15:51:39.610Z,27.90
2018-07-08T15:54:08.472Z,27.90
2018-07-08T15:56:36.718Z,27.90
2018-07-08T15:59:06.702Z,27.90
2018-07-08T16:01:34.766Z,28.20
2018-07-08T16:04:02.817Z,27.80
2018-07-08T16:06:31.391Z,27.80
2018-07-08T16:08:59.581Z,27.80
2018-07-08T16:11:27.980Z,27.80
2018-07-08T16:13:55.669Z,27.80
2018-07-08T16:16:23.345Z,27.70
2018-07-08T16:18:51.056Z,27.70
2018-07-08T16:21:18.619Z,27.90
2018-07-08T16:23:46.298Z,27.50
2018-07-08T16:26:14.503Z,27.50
2018-07-08T16:28:42.841Z,27.50
2018-07-08T16:31:10.792Z,27.50
2018-07-08T16:33:38.984Z,27.50
2018-07-08T16:36:06.662Z,27.50
2018-07-08T16:38:34.917Z,27.50
2018-07-08T16:41:02.609Z,27.40
2018-07-08T16:43:31.144Z,27.40
2018-07-08T16:45:59.174Z,27.30
2018-07-08T16:48:27.650Z,27.30
2018-07-08T16:50:55.775Z,27.30
2018-07-08T16:53:23.464Z,27.30
2018-07-08T16:55:51.127Z,27.30
2018-07-08T16:58:19.508Z,27.20
2018-07-08T17:00:47.709Z,27.30
2018-07-08T17:03:16.236Z,27.30
2018-07-08T17:05:44.036Z,27.20
2018-07-08T17:08:11.582Z,27.20
2018-07-08T17:10:39.737Z,27.10
2018-07-08T17:13:08.059Z,27.20
2018-07-08T17:18:05.551Z,27.10
2018-07-08T17:20:33.412Z,27.00
2018-07-08T17:23:02.147Z,27.00
2018-07-08T17:25:29.771Z,27.00
2018-07-08T17:27:58.368Z,26.90
2018-07-08T17:30:26.512Z,26.90
2018-07-08T17:35:23.262Z,26.80
2018-07-08T17:37:51.024Z,26.80
2018-07-08T17:40:18.717Z,26.80
2018-07-08T17:42:47.192Z,26.80
2018-07-08T17:45:15.497Z,26.80
2018-07-08T17:47:43.384Z,26.90
2018-07-08T17:50:12.070Z,26.90
2018-07-08T17:52:39.764Z,26.80
2018-07-08T17:55:07.470Z,26.80
2018-07-08T17:57:36.738Z,26.70
2018-07-08T18:00:04.598Z,26.70
2018-07-08T18:02:33.285Z,26.70
2018-07-08T18:05:01.566Z,26.60
2018-07-08T18:07:29.363Z,26.60
2018-07-08T18:09:57.790Z,26.50
2018-07-08T18:12:25.880Z,26.40
2018-07-08T18:14:53.723Z,26.40
2018-07-08T18:17:21.411Z,26.40
2018-07-08T18:19:49.183Z,26.30
2018-07-08T18:22:16.769Z,26.40
2018-07-08T18:24:44.521Z,26.30
2018-07-08T18:27:13.394Z,26.20
2018-07-08T18:29:41.206Z,26.20
2018-07-08T18:32:08.888Z,26.20
2018-07-08T18:34:36.875Z,26.20
2018-07-08T18:37:04.612Z,26.00
2018-07-08T18:39:33.352Z,26.00
2018-07-08T18:42:01.746Z,26.00
2018-07-08T18:44:30.737Z,26.00
2018-07-08T18:46:58.310Z,26.00
2018-07-08T18:49:25.965Z,25.90
2018-07-08T18:51:53.956Z,26.00
2018-07-08T18:54:22.914Z,25.90
2018-07-08T18:56:50.677Z,26.00
2018-07-08T18:59:18.552Z,25.90
2018-07-08T19:01:46.321Z,25.90
2018-07-08T19:04:14.878Z,26.00
2018-07-08T19:06:43.030Z,26.00
2018-07-08T19:09:11.200Z,26.00
2018-07-08T19:11:38.991Z,25.80
2018-07-08T19:14:06.704Z,25.80
2018-07-08T19:16:35.471Z,25.80
2018-07-08T19:19:03.161Z,25.80
2018-07-08T19:21:31.518Z,25.80
2018-07-08T19:23:59.213Z,25.70
2018-07-08T19:26:27.058Z,25.60
2018-07-08T19:28:55.052Z,25.60
2018-07-08T19:31:24.579Z,25.50
2018-07-08T19:33:52.940Z,25.60
2018-07-08T19:36:20.663Z,25.50
2018-07-08T19:38:48.365Z,25.60
2018-07-08T19:41:16.191Z,25.50
2018-07-08T19:43:44.000Z,25.50
2018-07-08T19:46:11.640Z,25.50
2018-07-08T19:48:39.616Z,25.40
2018-07-08T19:51:07.866Z,25.40
2018-07-08T19:53:36.122Z,25.40
2018-07-08T19:56:03.843Z,25.40
2018-07-08T19:58:33.524Z,25.30
2018-07-08T20:01:03.901Z,25.30
2018-07-08T20:03:32.387Z,25.30
2018-07-08T20:06:00.928Z,25.30
2018-07-08T20:08:28.735Z,25.30
2018-07-08T20:10:56.301Z,25.40
2018-07-08T20:13:24.637Z,25.40
2018-07-08T20:15:52.713Z,25.40
2018-07-08T20:18:20.548Z,25.50
2018-07-08T20:20:48.249Z,25.40
2018-07-08T20:23:16.588Z,25.40
2018-07-08T20:25:44.264Z,25.30
2018-07-08T20:28:12.084Z,25.30
2018-07-08T20:30:40.316Z,25.30
2018-07-08T20:33:07.815Z,25.30
2018-07-08T20:35:35.682Z,25.30
2018-07-08T20:38:03.586Z,25.30
2018-07-08T20:40:32.508Z,25.20
2018-07-08T20:43:00.408Z,25.20
2018-07-08T20:47:56.435Z,25.10
2018-07-08T20:50:24.165Z,25.10
2018-07-08T20:52:52.448Z,25.10
2018-07-08T20:55:20.766Z,25.00
2018-07-08T20:57:49.251Z,25.00
2018-07-08T21:00:19.600Z,25.00
2018-07-08T21:02:48.155Z,25.00
2018-07-08T21:05:16.271Z,24.90
2018-07-08T21:07:44.259Z,24.90
2018-07-08T21:10:12.478Z,24.90
2018-07-08T21:12:40.744Z,24.80
2018-07-08T21:15:09.852Z,24.70
2018-07-08T21:17:38.542Z,24.60
2018-07-08T21:20:07.733Z,24.50
2018-07-08T21:22:35.611Z,24.50
2018-07-08T21:25:03.262Z,24.50
2018-07-08T21:27:31.349Z,24.60
2018-07-08T21:29:58.972Z,24.50
2018-07-08T21:32:27.025Z,24.50
2018-07-08T21:34:54.820Z,24.60
2018-07-08T21:37:25.972Z,24.30
2018-07-08T21:39:54.102Z,24.20
2018-07-08T21:42:22.060Z,24.10
2018-07-08T21:44:49.671Z,24.10
2018-07-08T21:47:17.902Z,24.10
2018-07-08T21:49:45.627Z,24.00
2018-07-08T21:52:13.448Z,23.90
2018-07-08T21:54:41.821Z,23.90
2018-07-08T21:57:09.432Z,23.80
2018-07-08T21:59:38.001Z,23.80
2018-07-08T22:02:10.534Z,23.80
2018-07-08T22:04:38.427Z,23.60
2018-07-08T22:07:11.791Z,23.50
2018-07-08T22:09:40.041Z,24.40
2018-07-08T22:14:35.803Z,23.40
2018-07-08T22:17:04.166Z,23.40
2018-07-08T22:19:32.379Z,23.40
2018-07-08T22:22:00.816Z,23.30
2018-07-08T22:26:56.102Z,23.10
2018-07-08T22:29:23.641Z,23.10
2018-07-08T22:31:51.273Z,23.10
2018-07-08T22:34:18.824Z,23.10
2018-07-08T22:36:46.461Z,23.00
2018-07-08T22:39:14.950Z,22.90
2018-07-08T22:44:10.752Z,22.90
2018-07-08T22:46:38.441Z,23.00
2018-07-08T22:49:06.642Z,23.00
2018-07-08T22:51:34.201Z,23.00
2018-07-08T22:54:01.757Z,23.00
2018-07-08T22:56:29.385Z,23.10
2018-07-08T22:58:56.938Z,23.00
2018-07-08T23:01:35.983Z,23.00
2018-07-08T23:04:04.523Z,22.90
2018-07-08T23:06:32.539Z,23.00
2018-07-08T23:09:00.042Z,23.00
2018-07-08T23:11:28.721Z,22.90
2018-07-08T23:13:57.175Z,22.90
2018-07-08T23:16:25.471Z,22.90
2018-07-08T23:18:53.859Z,22.80
2018-07-08T23:21:21.440Z,22.80
2018-07-08T23:23:49.615Z,22.80
2018-07-08T23:26:17.190Z,22.70
2018-07-08T23:28:44.731Z,22.60
2018-07-08T23:31:13.646Z,22.60
2018-07-08T23:33:41.332Z,22.60
2018-07-08T23:36:10.420Z,22.60
2018-07-08T23:38:38.240Z,22.60
2018-07-08T23:41:07.712Z,22.50
2018-07-08T23:43:37.042Z,22.60
2018-07-08T23:46:05.700Z,22.60
2018-07-08T23:48:33.653Z,22.60
2018-07-08T23:53:29.999Z,22.50
2018-07-08T23:55:57.785Z,22.50
2018-07-08T23:58:25.296Z,22.60
